Snav Lazio — IBUH — position and weather

sailwx.info

Track history (hours):
 
Tides and Currents Weather Stations Pressure Air Temp Water Temp Dewpoint Dewpoint Depression Visibility Wind Speed Wind Dir Waves Ship Positions

Snav Lazio

Last reported at 2014-Dec-19 21:33 UTC. Time now 2014-Dec-19 22:45 UTC.
Position N 40°18' E 014°02'.

Length 162 m; draft 6 m.

Type: Passenger vessel. MMSI: 247163100.

Date/timePositionNaut miles runAvg speedWind from/ knotsBaromVisibWave heightAir tempDewpointWater temp
2014-Dec-19 21:33N 40°18' E 014°02'1717.3
2014-Dec-19 20:34N 40°35' E 014°08'17 1.3
2014-Dec-19 07:32N 40°50' E 014°15'0 0.0
2014-Dec-19 05:24N 40°50' E 014°15'7 8.2
2014-Dec-19 04:33N 40°44' E 014°14'1818.5
2014-Dec-19 03:33N 40°26' E 014°05'12317.6
2014-Dec-18 20:32N 38°26' E 013°30'1717.0
2014-Dec-18 19:33N 38°10' E 013°26'4 3.5
2014-Dec-18 18:32N 38°08' E 013°22'0 0.0
2014-Dec-18 17:32N 38°08' E 013°22'0 0.0
2014-Dec-18 16:32N 38°08' E 013°22'0 0.0
2014-Dec-18 15:32N 38°08' E 013°22'0 0.0
2014-Dec-18 14:32N 38°08' E 013°22'0 0.0
2014-Dec-18 13:32N 38°08' E 013°22'0 0.0
2014-Dec-18 12:32N 38°08' E 013°22'0 0.0
2014-Dec-18 11:32N 38°08' E 013°22'0 0.0
2014-Dec-18 10:32N 38°08' E 013°22'0 0.0
2014-Dec-18 09:32N 38°08' E 013°22'0 0.0
2014-Dec-18 08:32N 38°08' E 013°22'0 0.0
2014-Dec-18 07:32N 38°08' E 013°22'0 0.0
2014-Dec-18 06:32N 38°08' E 013°22'0 0.0
2014-Dec-18 05:33N 38°08' E 013°22'8 8.3
2014-Dec-18 04:33N 38°15' E 013°26'1818.4
2014-Dec-18 03:33N 38°33' E 013°32'1918.4
2014-Dec-18 02:31N 38°52' E 013°38'8717.4
2014-Dec-17 21:30N 40°17' E 014°03'1516.5
2014-Dec-17 20:34N 40°32' E 014°08'1616.3
2014-Dec-17 19:34N 40°47' E 014°15'3 0.2
2014-Dec-17 05:10N 40°50' E 014°16'711.4
2014-Dec-17 04:33N 40°44' E 014°14'1817.6
2014-Dec-17 03:33N 40°27' E 014°05'11517.7
2014-Dec-16 21:05N 38°35' E 013°33'917.1
2014-Dec-16 20:34N 38°26' E 013°31'1717.3
2014-Dec-16 19:34N 38°10' E 013°26'4 3.4
2014-Dec-16 18:29N 38°08' E 013°22'0 0.0
2014-Dec-16 17:29N 38°08' E 013°22'0 0.0
2014-Dec-16 16:32N 38°08' E 013°22'0 0.0
2014-Dec-16 15:32N 38°08' E 013°22'0 0.0
2014-Dec-16 14:26N 38°08' E 013°22'0 0.0
2014-Dec-16 13:32N 38°08' E 013°22'0 0.0
2014-Dec-16 12:32N 38°08' E 013°22'0 0.0
2014-Dec-16 11:32N 38°08' E 013°22'0 0.0
2014-Dec-16 10:32N 38°08' E 013°22'0 0.0
2014-Dec-16 09:32N 38°08' E 013°22'0 0.0
2014-Dec-16 08:32N 38°08' E 013°22'0 0.0
2014-Dec-16 07:32N 38°08' E 013°22'0 0.0
2014-Dec-16 06:32N 38°08' E 013°22'0 0.0
2014-Dec-16 05:33N 38°08' E 013°22'1010.2
2014-Dec-16 04:33N 38°17' E 013°28'1818.1
2014-Dec-16 03:33N 38°35' E 013°34'1817.8
2014-Dec-16 02:33N 38°52' E 013°39'7917.6
2014-Dec-15 22:03N 40°10' E 013°60'816.0
2014-Dec-15 21:32N 40°18' E 014°02'1616.2
2014-Dec-15 20:33N 40°33' E 014°06'1616.0
2014-Dec-15 19:33N 40°48' E 014°16'3 0.1
2014-Dec-14 08:26N 40°50' E 014°15'7 1.8
2014-Dec-14 04:34N 40°44' E 014°13'1818.3
2014-Dec-14 03:34N 40°27' E 014°05'9317.7
2014-Dec-13 22:19N 38°56' E 013°40'2116.8
2014-Dec-13 21:05N 38°36' E 013°34'917.1
2014-Dec-13 20:33N 38°27' E 013°31'1717.4
2014-Dec-13 19:33N 38°10' E 013°26'4 3.8
2014-Dec-13 18:31N 38°08' E 013°22'0 0.0
2014-Dec-13 17:31N 38°08' E 013°22'0 0.0
2014-Dec-13 16:31N 38°08' E 013°22'0 0.0
2014-Dec-13 15:31N 38°08' E 013°22'0 0.0
2014-Dec-13 14:31N 38°08' E 013°22'0 0.0
2014-Dec-13 13:31N 38°08' E 013°22'48 4.2
2014-Dec-13 02:16N 38°55' E 013°34'8217.3
2014-Dec-12 21:33N 40°14' E 014°02'1717.0
2014-Dec-12 20:33N 40°30' E 014°06'1717.4
2014-Dec-12 19:33N 40°46' E 014°15'4 0.3
2014-Dec-12 06:05N 40°50' E 014°15'0 0.3
2014-Dec-12 05:11N 40°50' E 014°16'711.2
2014-Dec-12 04:34N 40°44' E 014°13'1818.3
2014-Dec-12 03:34N 40°26' E 014°05'12317.5
2014-Dec-11 20:33N 38°26' E 013°32'1616.4
2014-Dec-11 19:33N 38°10' E 013°27'5 4.8
2014-Dec-11 18:33N 38°08' E 013°22'42 2.6
2014-Dec-11 02:32N 38°49' E 013°35'8817.6
2014-Dec-10 21:33N 40°14' E 014°02'1717.2
2014-Dec-10 20:33N 40°31' E 014°07'1717.3
2014-Dec-10 19:33N 40°47' E 014°15'3 0.2
2014-Dec-10 05:04N 40°50' E 014°17'815.0
2014-Dec-10 04:34N 40°43' E 014°14'1717.3
2014-Dec-10 03:34N 40°27' E 014°04'  
Track history (hours):
 
Tides and Currents Weather Stations Pressure Air Temp Water Temp Dewpoint Dewpoint Depression Visibility Wind Speed Wind Dir Waves Ship Positions

Snav Lazio

Last reported at 2014-Dec-19 21:33 UTC. Time now 2014-Dec-19 22:45 UTC.
Position N 40°18' E 014°02'.

Length 162 m; draft 6 m.

Type: Passenger vessel. MMSI: 247163100.

Date/timePositionNaut miles runAvg speedWind from/ knotsBaromVisibWave heightAir tempDewpointWater temp
2014-Dec-19 21:33N 40°18' E 014°02'1717.3
2014-Dec-19 20:34N 40°35' E 014°08'17 1.3
2014-Dec-19 07:32N 40°50' E 014°15'0 0.0
2014-Dec-19 05:24N 40°50' E 014°15'7 8.2
2014-Dec-19 04:33N 40°44' E 014°14'1818.5
2014-Dec-19 03:33N 40°26' E 014°05'12317.6
2014-Dec-18 20:32N 38°26' E 013°30'1717.0
2014-Dec-18 19:33N 38°10' E 013°26'4 3.5
2014-Dec-18 18:32N 38°08' E 013°22'0 0.0
2014-Dec-18 17:32N 38°08' E 013°22'0 0.0
2014-Dec-18 16:32N 38°08' E 013°22'0 0.0
2014-Dec-18 15:32N 38°08' E 013°22'0 0.0
2014-Dec-18 14:32N 38°08' E 013°22'0 0.0
2014-Dec-18 13:32N 38°08' E 013°22'0 0.0
2014-Dec-18 12:32N 38°08' E 013°22'0 0.0
2014-Dec-18 11:32N 38°08' E 013°22'0 0.0
2014-Dec-18 10:32N 38°08' E 013°22'0 0.0
2014-Dec-18 09:32N 38°08' E 013°22'0 0.0
2014-Dec-18 08:32N 38°08' E 013°22'0 0.0
2014-Dec-18 07:32N 38°08' E 013°22'0 0.0
2014-Dec-18 06:32N 38°08' E 013°22'0 0.0
2014-Dec-18 05:33N 38°08' E 013°22'8 8.3
2014-Dec-18 04:33N 38°15' E 013°26'1818.4
2014-Dec-18 03:33N 38°33' E 013°32'1918.4
2014-Dec-18 02:31N 38°52' E 013°38'8717.4
2014-Dec-17 21:30N 40°17' E 014°03'1516.5
2014-Dec-17 20:34N 40°32' E 014°08'1616.3
2014-Dec-17 19:34N 40°47' E 014°15'3 0.2
2014-Dec-17 05:10N 40°50' E 014°16'711.4
2014-Dec-17 04:33N 40°44' E 014°14'1817.6
2014-Dec-17 03:33N 40°27' E 014°05'11517.7
2014-Dec-16 21:05N 38°35' E 013°33'917.1
2014-Dec-16 20:34N 38°26' E 013°31'1717.3
2014-Dec-16 19:34N 38°10' E 013°26'4 3.4
2014-Dec-16 18:29N 38°08' E 013°22'0 0.0
2014-Dec-16 17:29N 38°08' E 013°22'0 0.0
2014-Dec-16 16:32N 38°08' E 013°22'0 0.0
2014-Dec-16 15:32N 38°08' E 013°22'0 0.0
2014-Dec-16 14:26N 38°08' E 013°22'0 0.0
2014-Dec-16 13:32N 38°08' E 013°22'0 0.0
2014-Dec-16 12:32N 38°08' E 013°22'0 0.0
2014-Dec-16 11:32N 38°08' E 013°22'0 0.0
2014-Dec-16 10:32N 38°08' E 013°22'0 0.0
2014-Dec-16 09:32N 38°08' E 013°22'0 0.0
2014-Dec-16 08:32N 38°08' E 013°22'0 0.0
2014-Dec-16 07:32N 38°08' E 013°22'0 0.0
2014-Dec-16 06:32N 38°08' E 013°22'0 0.0
2014-Dec-16 05:33N 38°08' E 013°22'1010.2
2014-Dec-16 04:33N 38°17' E 013°28'1818.1
2014-Dec-16 03:33N 38°35' E 013°34'1817.8
2014-Dec-16 02:33N 38°52' E 013°39'7917.6
2014-Dec-15 22:03N 40°10' E 013°60'816.0
2014-Dec-15 21:32N 40°18' E 014°02'1616.2
2014-Dec-15 20:33N 40°33' E 014°06'1616.0
2014-Dec-15 19:33N 40°48' E 014°16'3 0.1
2014-Dec-14 08:26N 40°50' E 014°15'7 1.8
2014-Dec-14 04:34N 40°44' E 014°13'1818.3
2014-Dec-14 03:34N 40°27' E 014°05'9317.7
2014-Dec-13 22:19N 38°56' E 013°40'2116.8
2014-Dec-13 21:05N 38°36' E 013°34'917.1
2014-Dec-13 20:33N 38°27' E 013°31'1717.4
2014-Dec-13 19:33N 38°10' E 013°26'4 3.8
2014-Dec-13 18:31N 38°08' E 013°22'0 0.0
2014-Dec-13 17:31N 38°08' E 013°22'0 0.0
2014-Dec-13 16:31N 38°08' E 013°22'0 0.0
2014-Dec-13 15:31N 38°08' E 013°22'0 0.0
2014-Dec-13 14:31N 38°08' E 013°22'0 0.0
2014-Dec-13 13:31N 38°08' E 013°22'48 4.2
2014-Dec-13 02:16N 38°55' E 013°34'8217.3
2014-Dec-12 21:33N 40°14' E 014°02'1717.0
2014-Dec-12 20:33N 40°30' E 014°06'1717.4
2014-Dec-12 19:33N 40°46' E 014°15'4 0.3
2014-Dec-12 06:05N 40°50' E 014°15'0 0.3
2014-Dec-12 05:11N 40°50' E 014°16'711.2
2014-Dec-12 04:34N 40°44' E 014°13'1818.3
2014-Dec-12 03:34N 40°26' E 014°05'12317.5
2014-Dec-11 20:33N 38°26' E 013°32'1616.4
2014-Dec-11 19:33N 38°10' E 013°27'5 4.8
2014-Dec-11 18:33N 38°08' E 013°22'42 2.6
2014-Dec-11 02:32N 38°49' E 013°35'8817.6
2014-Dec-10 21:33N 40°14' E 014°02'1717.2
2014-Dec-10 20:33N 40°31' E 014°07'1717.3
2014-Dec-10 19:33N 40°47' E 014°15'3 0.2
2014-Dec-10 05:04N 40°50' E 014°17'815.0
2014-Dec-10 04:34N 40°43' E 014°14'1717.3
2014-Dec-10 03:34N 40°27' E 014°04'  

Dump ship's entire track history